Startpagina
METAR-TAF:

METAR-TAF

Vliegvelden :

Luchthaven Schiphol

Amsterdam, Nederland

breedte: 52-18N, lengte: 004-46E, hoogte: -4 m

Actueel weer

Dit bericht is 12 minuten geleden gemaakt, om 23:25 UTC
Wind 11 kt uit het oostnoordoosten, variërend tussen het noordnoordoosten en het oosten
Temperatuur 20°C
Vochtigheid 60%
Druk 1020 hPa
Zicht 10 km of meer
geen wolken onder 1500 m en geen cumulonimbus

METAR: EHAM 262325Z 06011KT 030V090 CAVOK 20/12 Q1020 NOSIG

Tijdstip: 01:37 (23:37 UTC)

Verwachting

Dit bericht is 1 uur en het 1 minuten geleden gemaakt, om 22:36 UTC
Verwachting geldig van 27 om 00 UTC tot 28 om 06 UTC
Wind 11 kt uit het oostnoordoosten
Zicht 10 km of meer
geen wolken onder 1500 m en geen cumulonimbus
Wijzigt naar
van 27 om 17 UTC tot 27 om 20 UTC
Wind 5 kt uit het oosten

TAF: EHAM 262236Z 2700/2806 07011KT CAVOK BECMG 2717/2720 10005KT

Waarnemingen en weersverwachtingen van meer dan 4000 vliegvelden (METAR en TAF).

De beschikbare stations zijn de gele en rode punten op de kaart.

Ga met uw muis naar het station om de naam te zien.

Klik dan om waarnemingen en weersverwachtingen te zien.

kaart wijzigen: klik op de groene knoppen met een zwart kruis om in te zoomen, op de groene knop met een streepje om uit te zoomen of op de groene pijlen voor aangrenzende kaarten.


METAR-TAF: